Airfield :
LOGIN :

Register | Disclaimer

   EN    FR    IT 

 










Legend :    VFR   Marginal VFR   IFR   Intensive IFR   Very Intensive IFR
Visi :
Ceiling :
>= 8 km
>= 3000ft
5 to 8 km
1000 to 3000 ft
1500m to 5 km
500 to 1000 ft
800 to 1500m
200 to 500 ft
< 800m
< 200 ft
Symbols :   Thunderstorms  Fog  Heavy snow  Heavy precipitations  Wind > 20 kt
SIGMETs :     Misc.  Thunderstorms  Icing  Turbulence  Mountain Waves  Volcanic Ashes







- Airport Elevation : 200 ft


EBBL - Klein Brogel AB

CURRENT METAR :
  • 221239Z 34008KT 9999 FEW032 BKN050 15/07 Q1027 BLU FCST CANCEL

EXPIRED METARs :
  • 221225Z 32010KT 9999 FEW032 BKN050 16/07 Q1027 BLU BLU
  • 221155Z 32009KT 9999 FEW035 BKN060 15/07 Q1027 BLU BLU
  • 221125Z 30010KT 9999 FEW035 BKN060 16/07 Q1027 BLU BLU
  • 221055Z 30011KT 9999 FEW035 BKN055 16/07 Q1027 BLU BLU
  • 221025Z 30010KT 9999 FEW035 BKN055 16/06 Q1027 BLU BLU
  • 220955Z 32009KT 9999 FEW035 BKN055 16/06 Q1027 BLU BLU

TAF TAF EBBL
Valid from the 22 at 13:00 until the 22 at 22:00 UTC


221141Z 2213/2222 32010G20KT 9999 FEW035 BKN050
BECMG 2216/2218 SCT015 BKN020
No reported NOTAMs for that airfield.



MET'MAP, your aeronautical weather chart ! - Copyright ORBIFLY December 2007 - Disclaimer

ORBIFLY MET'MAP TEAM :

Programming & Development : Alexandra Zaïnal
Concept & Development : Baudouin d'Aumeries
Co-Development & Prog : Marc-Olivier Méhu
Technical & hardware support : Manuel Goepfert

Contact : metmap@orbifly.com




SOURCES & CREDITS :

   NOAA